Аэропорт: Нариманово. Астрахань

ICAO: URWA

METAR:
2019-07-23 18:30:00
URWA 231830Z 32003MPS 9999 -TSRA SCT030CB 23/16 Q1011 R09/010070 NOSIG RMK QFE760/1014
METAR:
2019-07-23 17:00:00
TAF URWA 231700Z 2318/2403 04003G08MPS 9999 SCT030CB TEMPO 2318/2324 3100 -TSRA